createdAt,value
2023-12-11T00:00:53.929Z,78.70
2023-12-11T00:04:56.863Z,78.50
2023-12-11T00:08:59.804Z,78.50
2023-12-11T00:13:04.272Z,78.70
2023-12-11T00:17:07.312Z,78.80
2023-12-11T00:21:10.356Z,78.90
2023-12-11T00:25:14.605Z,78.90
2023-12-11T00:29:17.530Z,78.90
2023-12-11T00:33:20.652Z,79.00
2023-12-11T00:37:23.659Z,79.00
2023-12-11T00:41:26.592Z,79.00
2023-12-11T00:45:29.667Z,79.00
2023-12-11T00:49:33.214Z,79.00
2023-12-11T00:53:36.288Z,79.00
2023-12-11T00:57:39.363Z,78.90
2023-12-11T01:01:43.372Z,78.90
2023-12-11T01:05:46.591Z,78.70
2023-12-11T01:09:49.554Z,78.70
2023-12-11T01:13:52.419Z,78.90
2023-12-11T01:17:55.643Z,79.00
2023-12-11T01:21:58.874Z,79.00
2023-12-11T01:26:02.072Z,79.20
2023-12-11T01:30:05.915Z,79.10
2023-12-11T01:34:08.996Z,79.10
2023-12-11T01:38:11.990Z,79.30
2023-12-11T01:42:15.167Z,79.20
2023-12-11T01:46:19.826Z,79.20
2023-12-11T01:50:22.818Z,79.40
2023-12-11T01:54:26.146Z,79.40
2023-12-11T01:58:31.187Z,79.30
2023-12-11T02:02:34.155Z,79.40
2023-12-11T02:06:37.100Z,79.50
2023-12-11T02:10:39.997Z,79.40
2023-12-11T02:14:42.857Z,79.50
2023-12-11T02:18:46.365Z,79.40
2023-12-11T02:22:49.713Z,79.30
2023-12-11T02:26:52.806Z,79.30
2023-12-11T02:30:56.222Z,79.40
2023-12-11T02:34:59.251Z,79.50
2023-12-11T02:39:02.428Z,79.50
2023-12-11T02:43:05.527Z,79.60
2023-12-11T02:47:08.503Z,79.60
2023-12-11T02:51:11.476Z,79.70
2023-12-11T02:55:14.495Z,79.80
2023-12-11T02:59:17.477Z,79.90
2023-12-11T03:03:20.435Z,79.80
2023-12-11T03:07:23.551Z,79.60
2023-12-11T03:11:26.529Z,79.60
2023-12-11T03:15:32.532Z,79.50
2023-12-11T03:19:35.768Z,79.50
2023-12-11T03:23:40.946Z,79.60
2023-12-11T03:27:43.982Z,79.70
2023-12-11T03:31:46.876Z,79.50
2023-12-11T03:35:49.880Z,79.40
2023-12-11T03:39:52.877Z,79.50
2023-12-11T03:43:55.866Z,79.70
2023-12-11T03:47:58.860Z,79.80
2023-12-11T03:52:01.825Z,79.80
2023-12-11T03:56:05.165Z,79.80
2023-12-11T04:00:08.829Z,79.80
2023-12-11T04:04:11.912Z,79.70
2023-12-11T04:08:15.052Z,79.70
2023-12-11T04:12:17.916Z,79.80
2023-12-11T04:16:20.823Z,79.90
2023-12-11T04:20:23.818Z,79.90
2023-12-11T04:24:26.730Z,80.00
2023-12-11T04:28:30.052Z,80.00
2023-12-11T04:32:33.145Z,79.80
2023-12-11T04:36:35.989Z,79.80
2023-12-11T04:40:38.968Z,79.80
2023-12-11T04:44:41.853Z,79.80
2023-12-11T04:48:44.957Z,79.90
2023-12-11T04:52:47.908Z,79.80
2023-12-11T04:56:50.792Z,79.90
2023-12-11T05:00:54.206Z,79.90
2023-12-11T05:04:57.693Z,79.90
2023-12-11T05:09:00.709Z,79.90
2023-12-11T05:13:03.725Z,79.90
2023-12-11T05:17:06.703Z,79.80
2023-12-11T05:21:10.773Z,79.70
2023-12-11T05:25:13.893Z,79.80
2023-12-11T05:29:18.054Z,79.80
2023-12-11T05:33:21.293Z,79.80
2023-12-11T05:37:24.521Z,79.80
2023-12-11T05:41:27.637Z,79.80
2023-12-11T05:45:30.659Z,79.90
2023-12-11T05:49:33.525Z,80.00
2023-12-11T05:53:36.436Z,79.90
2023-12-11T05:57:43.425Z,80.00
2023-12-11T06:01:49.493Z,80.10
2023-12-11T06:05:59.542Z,80.20
2023-12-11T06:10:05.210Z,80.20
2023-12-11T06:14:08.195Z,80.20
2023-12-11T06:18:12.175Z,80.10
2023-12-11T06:22:15.520Z,80.20
2023-12-11T06:26:30.274Z,80.20
2023-12-11T06:30:33.743Z,80.30
2023-12-11T06:34:37.107Z,80.10
2023-12-11T06:38:42.971Z,80.10
2023-12-11T06:42:46.936Z,79.90
2023-12-11T06:46:49.881Z,79.90
2023-12-11T06:50:54.409Z,80.00
2023-12-11T06:54:57.367Z,80.10
2023-12-11T06:59:00.304Z,80.10
2023-12-11T07:03:04.054Z,80.20
2023-12-11T07:07:07.463Z,80.10
2023-12-11T07:11:10.353Z,80.10
2023-12-11T07:15:13.454Z,80.10
2023-12-11T07:19:16.425Z,80.00
2023-12-11T07:23:19.581Z,80.00
2023-12-11T07:27:22.538Z,80.00
2023-12-11T07:31:25.463Z,80.10
2023-12-11T07:35:28.360Z,80.30
2023-12-11T07:39:31.233Z,80.50
2023-12-11T07:43:34.291Z,80.50
2023-12-11T07:47:37.696Z,80.40
2023-12-11T07:51:40.768Z,80.50
2023-12-11T07:55:43.614Z,80.40
2023-12-11T07:59:46.762Z,80.40
2023-12-11T08:03:49.969Z,80.50
2023-12-11T08:07:52.971Z,80.50
2023-12-11T08:11:56.102Z,80.40
2023-12-11T08:15:59.022Z,80.30
2023-12-11T08:20:02.312Z,80.30
2023-12-11T08:24:05.810Z,80.20
2023-12-11T08:28:09.781Z,80.20
2023-12-11T08:32:13.386Z,80.10
2023-12-11T08:36:16.192Z,80.30
2023-12-11T08:40:19.279Z,80.30
2023-12-11T08:44:22.247Z,80.20
2023-12-11T08:48:28.339Z,80.20
2023-12-11T08:52:32.431Z,80.10
2023-12-11T08:56:35.361Z,80.30
2023-12-11T09:00:38.214Z,80.30
2023-12-11T09:04:41.197Z,80.30
2023-12-11T09:08:44.126Z,80.30
2023-12-11T09:12:47.200Z,80.50
2023-12-11T09:16:50.992Z,80.70
2023-12-11T09:20:53.935Z,80.80
2023-12-11T09:24:56.908Z,80.80
2023-12-11T09:28:59.921Z,80.70
2023-12-11T09:33:06.688Z,80.70
2023-12-11T09:37:09.524Z,80.70
2023-12-11T09:41:13.239Z,80.50
2023-12-11T09:45:22.926Z,80.60
2023-12-11T09:49:29.208Z,80.50
2023-12-11T09:53:34.897Z,80.30
2023-12-11T09:57:41.114Z,80.10
2023-12-11T10:01:48.120Z,80.10
2023-12-11T10:05:51.244Z,79.90
2023-12-11T10:09:55.643Z,80.00
2023-12-11T10:14:12.112Z,79.90
2023-12-11T10:18:15.039Z,79.70
2023-12-11T10:22:32.427Z,79.70
2023-12-11T10:26:39.668Z,79.60
2023-12-11T10:31:00.843Z,79.50
2023-12-11T10:35:04.219Z,79.40
2023-12-11T10:39:12.319Z,79.30
2023-12-11T10:43:15.355Z,79.30
2023-12-11T10:47:22.130Z,79.10
2023-12-11T10:51:25.184Z,79.10
2023-12-11T10:55:28.258Z,79.00
2023-12-11T10:59:34.906Z,79.20
2023-12-11T11:03:38.028Z,79.10
2023-12-11T11:07:53.740Z,78.90
2023-12-11T11:12:07.691Z,78.70
2023-12-11T11:16:19.892Z,78.70
2023-12-11T11:20:48.660Z,78.70
2023-12-11T11:24:55.215Z,78.70
2023-12-11T11:29:06.442Z,78.70
2023-12-11T11:33:32.743Z,78.70
2023-12-11T11:37:55.873Z,78.70
2023-12-11T11:42:33.727Z,78.60
2023-12-11T11:47:11.300Z,78.40
2023-12-11T11:51:17.626Z,78.30
2023-12-11T11:55:35.854Z,78.30
2023-12-11T11:59:47.664Z,78.20
2023-12-11T12:03:50.778Z,78.20
2023-12-11T12:07:54.269Z,78.00
2023-12-11T12:11:59.139Z,77.80
2023-12-11T12:16:02.332Z,77.50
2023-12-11T12:20:13.547Z,77.20
2023-12-11T12:24:16.670Z,77.00
2023-12-11T12:28:20.343Z,76.90
2023-12-11T12:32:24.759Z,77.40
2023-12-11T12:36:27.983Z,77.80
2023-12-11T12:40:37.644Z,78.20
2023-12-11T12:44:41.288Z,78.50
2023-12-11T12:48:44.318Z,78.90
2023-12-11T12:52:47.322Z,79.30
2023-12-11T12:57:00.291Z,79.70
2023-12-11T13:01:03.900Z,79.90
2023-12-11T13:05:08.527Z,80.00
2023-12-11T13:09:12.207Z,80.10
2023-12-11T13:13:16.267Z,80.30
2023-12-11T13:17:21.719Z,80.50
2023-12-11T13:21:25.447Z,80.60
2023-12-11T13:25:28.312Z,80.70
2023-12-11T13:29:37.053Z,80.80
2023-12-11T13:33:40.840Z,80.90
2023-12-11T13:37:43.748Z,81.10
2023-12-11T13:41:46.739Z,81.30
2023-12-11T13:45:50.225Z,81.50
2023-12-11T13:49:53.300Z,81.50
2023-12-11T13:53:56.253Z,81.70
2023-12-11T13:57:59.180Z,81.80
2023-12-11T14:02:02.153Z,81.80
2023-12-11T14:06:05.387Z,81.80
2023-12-11T14:10:09.709Z,81.80
2023-12-11T14:14:12.641Z,81.90
2023-12-11T14:18:15.707Z,81.90
2023-12-11T14:22:18.734Z,82.00
2023-12-11T14:26:22.630Z,82.00
2023-12-11T14:30:34.391Z,82.10
2023-12-11T14:34:42.863Z,82.10
2023-12-11T14:38:46.804Z,82.10
2023-12-11T14:42:49.776Z,82.00
2023-12-11T14:46:52.708Z,82.10
2023-12-11T14:50:55.652Z,82.20
2023-12-11T14:54:58.702Z,82.00
2023-12-11T14:59:02.148Z,82.10
2023-12-11T15:03:05.326Z,82.10
2023-12-11T15:07:08.259Z,82.20
2023-12-11T15:11:11.701Z,82.30
2023-12-11T15:15:14.650Z,82.20
2023-12-11T15:19:17.810Z,82.10
2023-12-11T15:23:21.197Z,82.10
2023-12-11T15:27:24.162Z,81.80
2023-12-11T15:31:27.328Z,81.50
2023-12-11T15:35:30.424Z,81.50
2023-12-11T15:39:33.562Z,81.40
2023-12-11T15:43:36.866Z,81.40
2023-12-11T15:48:00.159Z,81.40
2023-12-11T15:52:03.211Z,81.70
2023-12-11T15:56:06.551Z,82.00
2023-12-11T16:00:12.544Z,82.70
2023-12-11T16:04:15.634Z,82.60
2023-12-11T16:08:18.739Z,82.50
2023-12-11T16:12:21.950Z,82.30
2023-12-11T16:16:24.845Z,82.20
2023-12-11T16:20:28.696Z,82.20
2023-12-11T16:24:31.718Z,81.90
2023-12-11T16:28:35.026Z,81.80
2023-12-11T16:32:38.028Z,81.80
2023-12-11T16:36:40.947Z,81.80
2023-12-11T16:40:44.139Z,81.80
2023-12-11T16:44:47.596Z,81.90
2023-12-11T16:48:50.878Z,82.00
2023-12-11T16:52:54.003Z,81.90
2023-12-11T16:56:57.093Z,82.00
2023-12-11T17:01:00.111Z,82.10
2023-12-11T17:05:05.987Z,82.20
2023-12-11T17:09:12.831Z,82.50
2023-12-11T17:13:15.985Z,83.00
2023-12-11T17:17:20.316Z,83.90
2023-12-11T17:21:28.513Z,84.20
2023-12-11T17:25:35.103Z,83.90
2023-12-11T17:29:40.323Z,83.50
2023-12-11T17:33:43.924Z,83.20
2023-12-11T17:37:46.959Z,82.90
2023-12-11T17:41:49.994Z,82.60
2023-12-11T17:46:00.557Z,82.40
2023-12-11T17:50:08.939Z,82.20
2023-12-11T17:54:15.169Z,82.10
2023-12-11T17:58:18.322Z,82.00
2023-12-11T18:02:24.889Z,81.90
2023-12-11T18:06:32.993Z,81.80
2023-12-11T18:10:41.457Z,81.80
2023-12-11T18:14:44.589Z,81.80
2023-12-11T18:18:49.009Z,81.80
2023-12-11T18:22:51.927Z,81.80
2023-12-11T18:26:55.171Z,81.80
2023-12-11T18:31:02.110Z,81.90
2023-12-11T18:35:05.510Z,81.90
2023-12-11T18:39:14.895Z,81.90
2023-12-11T18:43:23.726Z,81.90
2023-12-11T18:47:29.376Z,81.80
2023-12-11T18:51:34.586Z,81.80
2023-12-11T18:55:38.232Z,81.90
2023-12-11T18:59:42.472Z,81.90
2023-12-11T19:03:46.919Z,81.70
2023-12-11T19:07:49.964Z,81.50
2023-12-11T19:11:53.227Z,81.50
2023-12-11T19:15:58.375Z,81.40
2023-12-11T19:20:01.450Z,81.30
2023-12-11T19:24:05.864Z,81.40
2023-12-11T19:28:11.585Z,81.60
2023-12-11T19:36:22.487Z,81.30
2023-12-11T19:40:25.478Z,81.30
2023-12-11T19:44:29.473Z,81.40
2023-12-11T19:48:36.054Z,81.50
2023-12-11T19:52:41.782Z,81.50
2023-12-11T19:56:58.519Z,81.40
2023-12-11T20:01:07.994Z,81.40
2023-12-11T20:05:13.151Z,81.10
2023-12-11T20:09:21.018Z,80.80
2023-12-11T20:13:40.615Z,80.50
2023-12-11T20:17:45.106Z,80.30
2023-12-11T20:21:53.431Z,80.30
2023-12-11T20:26:03.333Z,80.40
2023-12-11T20:30:06.980Z,80.50
2023-12-11T20:34:10.180Z,80.90
2023-12-11T20:38:13.452Z,80.90
2023-12-11T20:42:18.261Z,80.90
2023-12-11T20:46:25.303Z,81.00
2023-12-11T20:50:29.994Z,81.10
2023-12-11T20:54:33.241Z,81.20
2023-12-11T20:58:38.466Z,81.20
2023-12-11T21:02:43.933Z,81.30
2023-12-11T21:06:47.628Z,81.40
2023-12-11T21:10:50.800Z,81.50
2023-12-11T21:14:53.804Z,81.70
2023-12-11T21:18:57.135Z,81.80
2023-12-11T21:23:01.479Z,81.90
2023-12-11T21:27:10.290Z,82.10
2023-12-11T21:31:32.711Z,82.30
2023-12-11T21:35:35.950Z,82.40
2023-12-11T21:39:39.319Z,82.40
2023-12-11T21:43:44.148Z,82.40
2023-12-11T21:47:47.628Z,82.60
2023-12-11T21:51:51.358Z,82.70
2023-12-11T21:55:56.625Z,82.90
2023-12-11T21:59:59.902Z,82.90
2023-12-11T22:04:03.385Z,82.90
2023-12-11T22:08:06.523Z,82.90
2023-12-11T22:12:09.603Z,82.90
2023-12-11T22:16:15.286Z,83.10
2023-12-11T22:20:18.329Z,83.10
2023-12-11T22:24:21.888Z,83.20
2023-12-11T22:28:25.365Z,83.20
2023-12-11T22:32:31.772Z,83.20
2023-12-11T22:36:35.060Z,83.10
2023-12-11T22:40:38.822Z,83.10
2023-12-11T22:44:45.574Z,83.00
2023-12-11T22:48:50.877Z,83.10
2023-12-11T22:52:53.906Z,83.10
2023-12-11T22:56:57.640Z,83.20
2023-12-11T23:01:03.478Z,83.10
2023-12-11T23:05:07.804Z,83.10
2023-12-11T23:09:12.980Z,82.90
2023-12-11T23:13:16.030Z,82.70
2023-12-11T23:17:19.149Z,82.50
2023-12-11T23:21:22.077Z,82.40
2023-12-11T23:25:25.235Z,82.30
2023-12-11T23:29:28.345Z,82.30
2023-12-11T23:33:31.632Z,82.20
2023-12-11T23:37:35.718Z,82.10
2023-12-11T23:41:39.345Z,81.90
2023-12-11T23:45:42.443Z,81.80
2023-12-11T23:49:45.524Z,81.50
2023-12-11T23:53:48.647Z,81.10
2023-12-11T23:57:51.928Z,81.00
